Time;durP1;ratioP1;P1;durP2;ratioP2;P2;SDS_P1;SDS_P2;PMS_P1;PMS_P2;Temp;Humidity;BMP_temperature;BMP_pressure;BME280_temperature;BME280_humidity;BME280_pressure;Samples;Min_cycle;Max_cycle;Signal;HPM_P1;HPM_P2
2021/12/30 00:01:43;;;;;;;19.15;6.38;;;;;;;;;;5111368;28;20052;-60
2021/12/30 00:04:11;;;;;;;18.92;7.05;;;;;;;;;;5111836;28;20089;-60
2021/12/30 00:06:40;;;;;;;15.68;6.10;;;;;;;;;;5111954;28;20052;-60
2021/12/30 00:09:07;;;;;;;17.92;6.20;;;;;;;;;;5111048;28;20051;-60
2021/12/30 00:11:33;;;;;;;18.17;6.35;;;;;;;;;;5112307;28;20108;-60
2021/12/30 00:13:59;;;;;;;15.27;5.28;;;;;;;;;;5111747;28;20130;-60
2021/12/30 00:16:25;;;;;;;18.55;6.53;;;;;;;;;;5111024;28;20047;-60
2021/12/30 00:18:51;;;;;;;19.88;6.60;;;;;;;;;;5111536;28;20044;-60
2021/12/30 00:21:20;;;;;;;19.92;7.20;;;;;;;;;;5111594;28;20043;-60
2021/12/30 00:23:46;;;;;;;19.95;7.25;;;;;;;;;;5110733;28;20126;-60
2021/12/30 00:26:13;;;;;;;15.77;5.78;;;;;;;;;;5111700;28;20040;-60
2021/12/30 00:28:40;;;;;;;16.88;6.72;;;;;;;;;;5111931;28;20456;-60
2021/12/30 00:31:06;;;;;;;18.02;6.40;;;;;;;;;;5110380;28;20105;-60
2021/12/30 00:33:34;;;;;;;17.83;6.90;;;;;;;;;;5111630;28;20047;-60
2021/12/30 00:36:02;;;;;;;17.77;6.43;;;;;;;;;;5111498;28;20123;-60
2021/12/30 00:38:29;;;;;;;20.42;7.05;;;;;;;;;;5111028;28;20131;-60
2021/12/30 00:40:55;;;;;;;15.85;6.53;;;;;;;;;;5110990;28;20052;-60
2021/12/30 00:43:22;;;;;;;18.85;6.50;;;;;;;;;;5111864;28;20101;-60
2021/12/30 00:45:48;;;;;;;20.80;7.13;;;;;;;;;;5110406;28;20100;-60
2021/12/30 00:48:14;;;;;;;20.83;6.72;;;;;;;;;;5111559;28;20050;-60
2021/12/30 00:50:41;;;;;;;23.75;7.72;;;;;;;;;;5110875;28;20411;-60
2021/12/30 00:53:08;;;;;;;19.75;7.18;;;;;;;;;;5111644;28;20097;-60
2021/12/30 00:55:36;;;;;;;26.38;8.38;;;;;;;;;;5111315;28;20486;-60
2021/12/30 00:58:03;;;;;;;22.17;7.15;;;;;;;;;;5110491;28;20089;-60
2021/12/30 01:00:29;;;;;;;21.58;7.43;;;;;;;;;;5111095;28;20054;-60
2021/12/30 01:02:55;;;;;;;21.17;7.80;;;;;;;;;;5111089;28;20085;-61
2021/12/30 01:05:22;;;;;;;22.27;8.18;;;;;;;;;;5110427;28;20048;-60
2021/12/30 01:07:48;;;;;;;19.02;7.68;;;;;;;;;;5110843;28;20058;-60
2021/12/30 01:10:16;;;;;;;23.70;8.30;;;;;;;;;;5111213;28;20047;-60
2021/12/30 01:12:44;;;;;;;28.65;9.27;;;;;;;;;;5110286;28;20514;-60
2021/12/30 01:15:11;;;;;;;25.25;8.27;;;;;;;;;;5111174;28;20048;-61
2021/12/30 01:17:46;;;;;;;24.55;8.50;;;;;;;;;;5111433;28;20040;-60
2021/12/30 01:20:12;;;;;;;26.35;9.48;;;;;;;;;;5110696;28;20135;-60
2021/12/30 01:22:39;;;;;;;26.02;8.98;;;;;;;;;;5111240;28;20043;-60
2021/12/30 01:25:07;;;;;;;25.00;9.15;;;;;;;;;;5110908;28;20518;-60
2021/12/30 01:27:33;;;;;;;23.27;9.00;;;;;;;;;;5110327;28;20486;-60
2021/12/30 01:30:01;;;;;;;25.70;8.65;;;;;;;;;;5111154;28;20100;-60
2021/12/30 01:32:27;;;;;;;28.73;9.65;;;;;;;;;;5111029;28;20092;-60
2021/12/30 01:34:53;;;;;;;28.55;9.32;;;;;;;;;;5111865;28;20044;-60
2021/12/30 01:37:22;;;;;;;26.98;9.20;;;;;;;;;;5114893;28;20039;-60
2021/12/30 01:39:48;;;;;;;29.27;10.35;;;;;;;;;;5114202;28;20406;-60
2021/12/30 01:42:14;;;;;;;26.30;9.75;;;;;;;;;;5114721;28;20475;-60
2021/12/30 01:44:41;;;;;;;25.73;9.70;;;;;;;;;;5115252;28;20088;-60
2021/12/30 01:47:09;;;;;;;26.45;9.57;;;;;;;;;;5114146;28;20071;-60
2021/12/30 01:49:35;;;;;;;26.15;10.13;;;;;;;;;;5115024;28;20147;-60
2021/12/30 01:52:01;;;;;;;31.88;11.20;;;;;;;;;;5114451;28;20055;-60
2021/12/30 01:54:28;;;;;;;28.98;10.63;;;;;;;;;;5113989;28;20051;-60
2021/12/30 01:56:57;;;;;;;25.92;10.57;;;;;;;;;;5114188;28;20051;-60
2021/12/30 01:59:24;;;;;;;27.13;10.40;;;;;;;;;;5114637;28;20044;-60
2021/12/30 02:01:56;;;;;;;27.75;10.27;;;;;;;;;;5113659;28;20044;-60
2021/12/30 02:04:23;;;;;;;26.60;10.45;;;;;;;;;;5114565;28;20044;-60
2021/12/30 02:06:50;;;;;;;30.00;9.93;;;;;;;;;;5114036;28;20051;-60
2021/12/30 02:09:18;;;;;;;26.60;10.95;;;;;;;;;;5113470;28;20053;-60
2021/12/30 02:11:44;;;;;;;28.48;10.43;;;;;;;;;;5114142;28;20043;-60
2021/12/30 02:14:11;;;;;;;26.17;9.90;;;;;;;;;;5114500;28;20051;-60
2021/12/30 02:16:37;;;;;;;34.22;11.63;;;;;;;;;;5113652;28;20092;-60
2021/12/30 02:19:03;;;;;;;27.38;10.75;;;;;;;;;;5113905;28;20118;-60
2021/12/30 02:21:31;;;;;;;23.33;10.70;;;;;;;;;;5114127;28;20043;-61
2021/12/30 02:23:58;;;;;;;31.83;11.57;;;;;;;;;;5112894;28;20073;-60
2021/12/30 02:26:24;;;;;;;25.73;11.63;;;;;;;;;;5114222;28;20131;-60
2021/12/30 02:28:51;;;;;;;27.05;10.85;;;;;;;;;;5113837;27;20089;-60
2021/12/30 02:31:18;;;;;;;25.83;11.63;;;;;;;;;;5113206;28;20048;-61
2021/12/30 02:33:45;;;;;;;25.92;12.13;;;;;;;;;;5113659;28;20044;-60
2021/12/30 02:36:12;;;;;;;23.42;10.70;;;;;;;;;;5113131;28;20047;-60
2021/12/30 02:38:43;;;;;;;28.88;12.05;;;;;;;;;;5113652;28;20044;-60
2021/12/30 02:41:14;;;;;;;26.17;11.50;;;;;;;;;;5113917;28;20047;-60
2021/12/30 02:43:40;;;;;;;29.77;12.00;;;;;;;;;;5113189;28;20044;-61
2021/12/30 02:46:06;;;;;;;25.40;11.65;;;;;;;;;;5113602;28;20051;-61
2021/12/30 02:48:33;;;;;;;26.17;11.65;;;;;;;;;;5113616;27;20073;-61
2021/12/30 02:51:01;;;;;;;24.25;11.45;;;;;;;;;;5112650;28;20051;-60
2021/12/30 02:53:27;;;;;;;22.23;11.05;;;;;;;;;;5113553;28;20043;-60
2021/12/30 02:55:55;;;;;;;24.77;12.10;;;;;;;;;;5113604;28;20040;-60
2021/12/30 02:58:22;;;;;;;24.25;11.23;;;;;;;;;;5112831;28;20048;-60
2021/12/30 03:00:49;;;;;;;24.75;11.35;;;;;;;;;;5112899;28;20547;-60
2021/12/30 03:03:19;;;;;;;23.00;12.02;;;;;;;;;;5113312;28;20093;-60
2021/12/30 03:05:45;;;;;;;24.80;11.93;;;;;;;;;;5111965;28;20458;-61
2021/12/30 03:08:12;;;;;;;25.13;11.30;;;;;;;;;;5113052;28;20552;-61
2021/12/30 03:10:38;;;;;;;24.40;12.13;;;;;;;;;;5113136;28;20442;-60
2021/12/30 03:13:07;;;;;;;27.00;12.90;;;;;;;;;;5112229;28;20433;-60
2021/12/30 03:15:34;;;;;;;23.35;11.38;;;;;;;;;;5113092;28;20444;-60
2021/12/30 03:18:00;;;;;;;24.83;12.13;;;;;;;;;;5112698;28;20097;-60
2021/12/30 03:20:26;;;;;;;21.15;11.52;;;;;;;;;;5111982;28;20100;-60
2021/12/30 03:22:52;;;;;;;20.48;11.63;;;;;;;;;;5112936;28;20043;-60
2021/12/30 03:25:18;;;;;;;21.30;11.45;;;;;;;;;;5112312;28;20044;-60
2021/12/30 03:27:45;;;;;;;18.13;10.55;;;;;;;;;;5112721;28;20101;-60
2021/12/30 03:30:14;;;;;;;22.33;11.23;;;;;;;;;;5112688;28;20056;-60
2021/12/30 03:32:41;;;;;;;21.80;11.70;;;;;;;;;;5112048;28;20077;-60
2021/12/30 03:35:07;;;;;;;18.05;10.07;;;;;;;;;;5112338;28;20043;-60
2021/12/30 03:37:33;;;;;;;19.42;10.90;;;;;;;;;;5112969;28;20043;-60
2021/12/30 03:40:00;;;;;;;18.98;11.07;;;;;;;;;;5111404;28;20047;-60
2021/12/30 03:42:26;;;;;;;19.23;11.25;;;;;;;;;;5112756;28;20043;-60
2021/12/30 03:44:56;;;;;;;20.30;11.60;;;;;;;;;;5112221;28;20482;-60
2021/12/30 03:47:24;;;;;;;17.98;10.80;;;;;;;;;;5111788;28;20048;-60
2021/12/30 03:49:52;;;;;;;17.02;11.50;;;;;;;;;;5112460;28;20048;-60
2021/12/30 03:52:24;;;;;;;20.55;11.05;;;;;;;;;;5112501;28;20063;-60
2021/12/30 03:54:51;;;;;;;16.27;11.05;;;;;;;;;;5111478;28;20044;-60
2021/12/30 03:57:17;;;;;;;19.13;11.02;;;;;;;;;;5111787;28;20039;-60
2021/12/30 03:59:43;;;;;;;15.23;10.38;;;;;;;;;;5111839;28;20136;-60
2021/12/30 04:02:09;;;;;;;15.57;10.93;;;;;;;;;;5111546;28;20120;-60
2021/12/30 04:04:37;;;;;;;15.77;11.38;;;;;;;;;;5111989;28;20603;-60
2021/12/30 04:07:04;;;;;;;19.95;11.18;;;;;;;;;;5111716;28;20056;-61
2021/12/30 04:09:30;;;;;;;16.05;10.98;;;;;;;;;;5111531;28;20113;-61
2021/12/30 04:11:56;;;;;;;16.75;11.32;;;;;;;;;;5111586;28;20044;-60
2021/12/30 04:14:26;;;;;;;18.30;11.40;;;;;;;;;;5111971;28;20077;-60
2021/12/30 04:16:52;;;;;;;18.38;11.32;;;;;;;;;;5111020;28;20406;-60
2021/12/30 04:19:18;;;;;;;15.75;10.85;;;;;;;;;;5111987;28;20047;-60
2021/12/30 04:21:46;;;;;;;14.38;10.60;;;;;;;;;;5110894;28;20108;-60
2021/12/30 04:24:12;;;;;;;13.70;9.93;;;;;;;;;;5111859;28;20040;-60
2021/12/30 04:26:38;;;;;;;12.52;9.90;;;;;;;;;;5111827;28;20043;-60
2021/12/30 04:29:05;;;;;;;15.68;10.93;;;;;;;;;;5110684;28;20051;-60
2021/12/30 04:31:31;;;;;;;12.10;9.25;;;;;;;;;;5111736;28;20044;-60
2021/12/30 04:33:58;;;;;;;13.55;9.95;;;;;;;;;;5111544;28;20142;-60
2021/12/30 04:36:24;;;;;;;13.18;9.40;;;;;;;;;;5110774;28;20110;-60
2021/12/30 04:38:52;;;;;;;10.52;9.10;;;;;;;;;;5111510;28;20044;-60
2021/12/30 04:41:18;;;;;;;13.20;9.38;;;;;;;;;;5111242;28;20048;-60
2021/12/30 04:43:44;;;;;;;10.60;9.52;;;;;;;;;;5110488;28;20210;-60
2021/12/30 04:46:11;;;;;;;9.68;8.68;;;;;;;;;;5111467;28;20048;-60
2021/12/30 04:48:37;;;;;;;12.27;8.65;;;;;;;;;;5111449;28;20582;-60
2021/12/30 04:51:03;;;;;;;8.73;7.70;;;;;;;;;;5110548;28;20047;-60
2021/12/30 04:53:30;;;;;;;9.70;7.93;;;;;;;;;;5111391;28;20052;-60
2021/12/30 04:55:57;;;;;;;8.80;7.60;;;;;;;;;;5111000;28;20059;-60
2021/12/30 04:58:24;;;;;;;8.73;7.45;;;;;;;;;;5110832;28;20044;-60
2021/12/30 05:00:50;;;;;;;9.02;7.18;;;;;;;;;;5111246;28;20093;-60
2021/12/30 05:03:16;;;;;;;8.45;7.15;;;;;;;;;;5111421;28;20137;-60
2021/12/30 05:05:44;;;;;;;7.93;6.93;;;;;;;;;;5110453;28;20051;-60
2021/12/30 05:08:11;;;;;;;7.40;6.70;;;;;;;;;;5111029;28;20056;-60
2021/12/30 05:10:37;;;;;;;7.45;6.65;;;;;;;;;;5115257;28;20093;-60
2021/12/30 05:13:05;;;;;;;6.35;5.75;;;;;;;;;;5114549;28;20503;-60
2021/12/30 05:15:32;;;;;;;7.10;5.70;;;;;;;;;;5115599;28;20043;-60
2021/12/30 05:17:58;;;;;;;6.20;5.60;;;;;;;;;;5114304;28;20126;-60
2021/12/30 05:20:24;;;;;;;7.38;6.03;;;;;;;;;;5115325;28;20112;-60
2021/12/30 05:22:51;;;;;;;6.13;5.53;;;;;;;;;;5114898;28;20451;-60
2021/12/30 05:25:18;;;;;;;6.07;4.80;;;;;;;;;;5114469;28;20474;-59
2021/12/30 05:27:44;;;;;;;5.70;4.70;;;;;;;;;;5114973;28;20075;-59
2021/12/30 05:30:13;;;;;;;4.80;4.15;;;;;;;;;;5115398;28;20044;-59
2021/12/30 05:32:39;;;;;;;4.60;4.20;;;;;;;;;;5114313;28;20062;-59
2021/12/30 05:35:07;;;;;;;4.68;4.10;;;;;;;;;;5114812;28;20120;-59
2021/12/30 05:37:33;;;;;;;3.92;3.63;;;;;;;;;;5115005;28;20048;-59
2021/12/30 05:39:59;;;;;;;3.80;3.50;;;;;;;;;;5113929;28;20093;-59
2021/12/30 05:42:25;;;;;;;4.38;3.72;;;;;;;;;;5114819;28;20039;-60
2021/12/30 05:44:52;;;;;;;3.72;3.13;;;;;;;;;;5114600;28;20052;-60
2021/12/30 05:47:20;;;;;;;3.40;3.08;;;;;;;;;;5114151;28;20207;-60
2021/12/30 05:49:46;;;;;;;4.03;2.85;;;;;;;;;;5114483;28;20040;-60
2021/12/30 05:52:12;;;;;;;3.78;3.22;;;;;;;;;;5114817;28;20109;-60
2021/12/30 05:54:39;;;;;;;3.88;3.17;;;;;;;;;;5113961;28;20043;-60
2021/12/30 05:57:05;;;;;;;3.90;3.33;;;;;;;;;;5114603;28;20047;-60
2021/12/30 05:59:31;;;;;;;5.18;3.42;;;;;;;;;;5114534;28;20105;-60
2021/12/30 06:02:01;;;;;;;5.05;3.33;;;;;;;;;;5113613;28;20056;-60
2021/12/30 06:04:28;;;;;;;5.40;3.13;;;;;;;;;;5114287;28;20059;-60
2021/12/30 06:06:55;;;;;;;3.17;2.88;;;;;;;;;;5113994;28;20055;-60
2021/12/30 06:09:24;;;;;;;3.47;3.17;;;;;;;;;;5113713;28;20047;-60
2021/12/30 06:11:50;;;;;;;5.93;3.30;;;;;;;;;;5114357;28;20044;-60
2021/12/30 06:14:16;;;;;;;5.53;3.30;;;;;;;;;;5113552;28;20052;-60
2021/12/30 06:16:43;;;;;;;4.57;3.65;;;;;;;;;;5113849;28;20043;-60
2021/12/30 06:19:09;;;;;;;5.03;3.67;;;;;;;;;;5113988;28;20047;-60
2021/12/30 06:21:36;;;;;;;6.00;3.53;;;;;;;;;;5113163;28;20059;-60
2021/12/30 06:24:03;;;;;;;5.18;3.65;;;;;;;;;;5113888;28;20047;-60
2021/12/30 06:26:29;;;;;;;5.63;3.63;;;;;;;;;;5114240;28;20129;-60
2021/12/30 06:28:55;;;;;;;4.20;3.38;;;;;;;;;;5112930;28;20043;-60
2021/12/30 06:31:22;;;;;;;5.13;3.50;;;;;;;;;;5114033;28;20044;-60
2021/12/30 06:33:49;;;;;;;4.97;3.50;;;;;;;;;;5113538;28;20051;-60
2021/12/30 06:36:17;;;;;;;4.13;3.50;;;;;;;;;;5113141;28;20395;-60
2021/12/30 06:38:44;;;;;;;4.93;3.22;;;;;;;;;;5113838;28;20124;-60
2021/12/30 06:41:10;;;;;;;5.30;3.60;;;;;;;;;;5113474;28;20043;-60
2021/12/30 06:43:37;;;;;;;4.13;3.28;;;;;;;;;;5113088;28;20097;-61
2021/12/30 06:46:05;;;;;;;3.47;3.05;;;;;;;;;;5113359;28;20365;-60
2021/12/30 06:48:31;;;;;;;4.30;2.92;;;;;;;;;;5113578;28;20402;-60
2021/12/30 06:50:59;;;;;;;4.38;2.80;;;;;;;;;;5112611;28;20040;-60
2021/12/30 06:53:26;;;;;;;5.60;3.05;;;;;;;;;;5113281;28;20066;-60
2021/12/30 06:55:53;;;;;;;5.75;2.97;;;;;;;;;;5102283;28;20044;-59
2021/12/30 06:58:20;;;;;;;4.05;2.85;;;;;;;;;;5092147;28;20044;-60
2021/12/30 07:00:47;;;;;;;3.10;2.40;;;;;;;;;;5111361;28;20044;-60
2021/12/30 07:03:13;;;;;;;4.35;2.40;;;;;;;;;;5113041;28;20562;-60
2021/12/30 07:05:39;;;;;;;4.95;2.83;;;;;;;;;;5112357;28;20043;-61
2021/12/30 07:08:06;;;;;;;4.13;2.58;;;;;;;;;;5112831;28;20112;-61
2021/12/30 07:10:32;;;;;;;4.38;2.50;;;;;;;;;;5111677;28;20044;-60
2021/12/30 07:13:00;;;;;;;5.20;2.80;;;;;;;;;;5112729;28;20043;-60
2021/12/30 07:15:26;;;;;;;4.15;2.90;;;;;;;;;;5112746;28;20093;-60
2021/12/30 07:17:52;;;;;;;5.07;2.60;;;;;;;;;;5111737;28;20047;-61
2021/12/30 07:20:18;;;;;;;6.10;2.80;;;;;;;;;;5112890;28;20055;-60
2021/12/30 07:22:45;;;;;;;3.88;2.67;;;;;;;;;;5112595;28;20104;-60
2021/12/30 07:25:16;;;;;;;4.57;2.85;;;;;;;;;;5111617;28;20097;-60
2021/12/30 07:27:42;;;;;;;3.30;2.70;;;;;;;;;;5112117;28;20051;-60
2021/12/30 07:30:11;;;;;;;5.88;3.10;;;;;;;;;;5112180;28;20051;-59
2021/12/30 07:32:37;;;;;;;3.97;2.72;;;;;;;;;;5111428;28;20047;-59
2021/12/30 07:35:03;;;;;;;4.38;2.65;;;;;;;;;;5112487;28;20040;-59
2021/12/30 07:37:30;;;;;;;3.47;2.45;;;;;;;;;;5112701;28;20040;-60
2021/12/30 07:39:56;;;;;;;5.28;2.95;;;;;;;;;;5111618;28;20379;-59
2021/12/30 07:42:22;;;;;;;4.70;2.60;;;;;;;;;;5112415;28;20052;-59
2021/12/30 07:44:48;;;;;;;2.95;2.65;;;;;;;;;;5112085;28;20068;-59
2021/12/30 07:47:16;;;;;;;3.67;2.70;;;;;;;;;;5111734;28;20048;-60
2021/12/30 07:49:42;;;;;;;7.75;3.45;;;;;;;;;;5112418;28;20040;-59
2021/12/30 07:52:08;;;;;;;6.75;4.97;;;;;;;;;;5112451;28;20527;-59
2021/12/30 07:54:35;;;;;;;7.22;3.67;;;;;;;;;;5111671;28;20047;-59
2021/12/30 07:57:01;;;;;;;5.88;4.10;;;;;;;;;;5111189;28;20124;-60
2021/12/30 07:59:27;;;;;;;5.95;4.35;;;;;;;;;;5111562;28;20502;-60
2021/12/30 08:01:54;;;;;;;6.50;4.57;;;;;;;;;;5111153;28;20055;-60
2021/12/30 08:04:21;;;;;;;8.82;6.20;;;;;;;;;;5112247;28;20118;-60
2021/12/30 08:06:47;;;;;;;6.85;5.60;;;;;;;;;;5110654;28;20124;-60
2021/12/30 08:09:14;;;;;;;9.32;5.82;;;;;;;;;;5112260;28;20482;-60
2021/12/30 08:11:40;;;;;;;9.27;6.22;;;;;;;;;;5112037;28;20051;-59
2021/12/30 08:14:06;;;;;;;10.02;5.97;;;;;;;;;;5111528;28;20035;-59
2021/12/30 08:16:33;;;;;;;7.35;5.80;;;;;;;;;;5112262;28;20048;-59
2021/12/30 08:18:59;;;;;;;10.48;6.32;;;;;;;;;;5111898;28;20043;-59
2021/12/30 08:21:27;;;;;;;7.90;6.55;;;;;;;;;;5111354;28;20043;-60
2021/12/30 08:23:53;;;;;;;9.43;7.40;;;;;;;;;;5111701;28;20514;-61
2021/12/30 08:26:19;;;;;;;8.10;6.75;;;;;;;;;;5111841;28;20138;-59
2021/12/30 08:28:46;;;;;;;11.20;7.50;;;;;;;;;;5111198;28;20104;-59
2021/12/30 08:31:12;;;;;;;8.75;6.35;;;;;;;;;;5111758;28;20502;-59
2021/12/30 08:33:38;;;;;;;8.05;6.80;;;;;;;;;;5111879;28;20036;-60
2021/12/30 08:36:04;;;;;;;8.65;6.78;;;;;;;;;;5110847;28;20043;-60
2021/12/30 08:38:32;;;;;;;10.20;7.22;;;;;;;;;;5111675;28;20039;-60
2021/12/30 08:40:58;;;;;;;9.77;7.35;;;;;;;;;;5111504;28;20043;-60
2021/12/30 08:43:25;;;;;;;9.50;6.50;;;;;;;;;;5110815;28;20101;-59
2021/12/30 08:45:51;;;;;;;8.57;6.70;;;;;;;;;;5111696;28;20105;-59
2021/12/30 08:48:19;;;;;;;7.45;6.50;;;;;;;;;;5111409;28;20445;-60
2021/12/30 08:50:45;;;;;;;12.05;6.80;;;;;;;;;;5110690;28;20067;-59
2021/12/30 08:53:12;;;;;;;9.73;5.85;;;;;;;;;;5111596;28;20039;-60
2021/12/30 08:55:39;;;;;;;11.07;6.25;;;;;;;;;;5111688;28;20116;-59
2021/12/30 08:58:06;;;;;;;11.10;6.10;;;;;;;;;;5110488;28;20104;-59
2021/12/30 09:00:38;;;;;;;11.88;5.88;;;;;;;;;;5111618;28;20556;-59
2021/12/30 09:03:05;;;;;;;8.30;5.05;;;;;;;;;;5109678;28;20171;-59
2021/12/30 09:05:31;;;;;;;9.13;5.55;;;;;;;;;;5111619;28;20040;-59
2021/12/30 09:07:57;;;;;;;13.10;5.88;;;;;;;;;;5110927;28;20051;-59
2021/12/30 09:10:24;;;;;;;11.00;6.03;;;;;;;;;;5110832;28;20093;-60
2021/12/30 09:12:53;;;;;;;12.02;5.75;;;;;;;;;;5111126;28;20482;-60
2021/12/30 09:15:20;;;;;;;15.05;5.68;;;;;;;;;;5111242;28;20047;-60
2021/12/30 09:17:47;;;;;;;15.10;5.47;;;;;;;;;;5110434;28;20475;-60
2021/12/30 09:20:14;;;;;;;13.05;5.25;;;;;;;;;;5111408;28;20493;-60
2021/12/30 09:22:40;;;;;;;13.05;5.43;;;;;;;;;;5111300;28;20077;-60
2021/12/30 09:25:08;;;;;;;15.10;6.00;;;;;;;;;;5110387;28;20474;-60
2021/12/30 09:27:35;;;;;;;12.52;5.65;;;;;;;;;;5111561;28;20093;-60
2021/12/30 09:30:03;;;;;;;12.88;5.65;;;;;;;;;;5111137;28;20059;-60
2021/12/30 09:32:29;;;;;;;10.63;5.47;;;;;;;;;;5110631;28;20077;-60
2021/12/30 09:34:55;;;;;;;11.75;5.80;;;;;;;;;;5110898;28;20044;-59
2021/12/30 09:37:22;;;;;;;11.85;6.10;;;;;;;;;;5110887;28;20036;-59
2021/12/30 09:39:48;;;;;;;12.38;6.45;;;;;;;;;;5110133;28;20486;-60
2021/12/30 09:42:14;;;;;;;11.70;5.63;;;;;;;;;;5110796;28;20055;-60
2021/12/30 09:44:41;;;;;;;12.57;6.53;;;;;;;;;;5111265;28;20043;-60
2021/12/30 09:47:08;;;;;;;12.20;5.80;;;;;;;;;;5110232;28;20494;-60
2021/12/30 09:49:34;;;;;;;12.15;5.78;;;;;;;;;;5111154;28;20044;-59
2021/12/30 09:52:01;;;;;;;22.27;7.65;;;;;;;;;;5110728;28;20557;-59
2021/12/30 09:54:27;;;;;;;16.65;7.70;;;;;;;;;;5109617;28;20061;-59
2021/12/30 09:56:54;;;;;;;16.95;7.75;;;;;;;;;;5113856;28;20040;-59
2021/12/30 09:59:21;;;;;;;14.95;7.40;;;;;;;;;;5113602;28;20043;-60
2021/12/30 10:01:48;;;;;;;15.13;7.88;;;;;;;;;;5114041;28;20039;-59
2021/12/30 10:04:15;;;;;;;15.93;7.90;;;;;;;;;;5114136;28;20089;-59
2021/12/30 10:06:42;;;;;;;13.05;6.32;;;;;;;;;;5113782;28;20104;-60
2021/12/30 10:09:12;;;;;;;15.57;7.22;;;;;;;;;;5114516;28;20032;-60
2021/12/30 10:11:45;;;;;;;12.13;7.15;;;;;;;;;;5114121;28;20499;-60
2021/12/30 10:14:12;;;;;;;13.55;7.82;;;;;;;;;;5111481;28;20046;-60
2021/12/30 10:16:38;;;;;;;14.75;7.22;;;;;;;;;;5113856;28;20445;-60
2021/12/30 10:19:06;;;;;;;11.27;6.03;;;;;;;;;;5113646;28;20039;-59
2021/12/30 10:21:34;;;;;;;13.15;6.50;;;;;;;;;;5113349;28;20126;-59
2021/12/30 10:24:02;;;;;;;10.57;5.80;;;;;;;;;;5113619;28;20103;-60
2021/12/30 10:26:28;;;;;;;15.70;7.05;;;;;;;;;;5113706;28;20047;-59
2021/12/30 10:28:55;;;;;;;13.70;6.35;;;;;;;;;;5113064;28;20089;-59
2021/12/30 10:31:23;;;;;;;12.32;6.15;;;;;;;;;;5113944;28;20132;-60
2021/12/30 10:33:54;;;;;;;15.48;6.35;;;;;;;;;;5111330;28;20092;-61
2021/12/30 10:36:22;;;;;;;13.63;5.90;;;;;;;;;;5112918;28;20073;-60
2021/12/30 10:38:50;;;;;;;11.75;5.65;;;;;;;;;;5113496;28;20044;-61
2021/12/30 10:41:17;;;;;;;13.35;5.78;;;;;;;;;;5113635;28;20120;-60
2021/12/30 10:43:47;;;;;;;12.32;5.10;;;;;;;;;;5112427;27;20044;-60
2021/12/30 10:46:14;;;;;;;15.48;5.30;;;;;;;;;;5113633;28;20069;-60
2021/12/30 10:48:51;;;;;;;13.95;5.95;;;;;;;;;;5113559;28;20097;-60
2021/12/30 10:51:18;;;;;;;12.25;5.75;;;;;;;;;;5113411;28;20047;-60
2021/12/30 10:53:44;;;;;;;11.07;5.85;;;;;;;;;;5113550;28;20043;-60
2021/12/30 10:56:22;;;;;;;16.17;7.05;;;;;;;;;;5112889;28;20108;-60
2021/12/30 10:58:49;;;;;;;12.32;5.60;;;;;;;;;;5113641;27;20043;-60
2021/12/30 11:01:17;;;;;;;13.70;6.18;;;;;;;;;;5113749;27;20494;-60
2021/12/30 11:03:51;;;;;;;17.67;6.40;;;;;;;;;;5112668;28;20040;-60
2021/12/30 11:06:17;;;;;;;12.02;5.65;;;;;;;;;;5112868;28;20052;-60
2021/12/30 11:08:46;;;;;;;14.40;5.72;;;;;;;;;;5112670;28;20043;-60
2021/12/30 11:11:26;;;;;;;14.00;6.13;;;;;;;;;;5113218;28;20044;-60
2021/12/30 11:13:59;;;;;;;14.02;6.07;;;;;;;;;;5113292;28;20044;-60
2021/12/30 11:16:26;;;;;;;20.35;6.22;;;;;;;;;;5113116;28;20547;-60
2021/12/30 11:18:52;;;;;;;13.57;6.30;;;;;;;;;;5112255;28;20482;-60
2021/12/30 11:21:33;;;;;;;15.23;5.70;;;;;;;;;;5113224;28;20039;-60
2021/12/30 11:23:59;;;;;;;13.05;6.13;;;;;;;;;;5111894;28;20163;-60
2021/12/30 11:26:27;;;;;;;12.30;5.70;;;;;;;;;;5113152;28;20112;-60
2021/12/30 11:28:53;;;;;;;14.23;5.78;;;;;;;;;;5112868;28;20039;-60
2021/12/30 11:31:20;;;;;;;12.60;5.40;;;;;;;;;;5112264;28;20089;-60
2021/12/30 11:33:46;;;;;;;12.82;5.80;;;;;;;;;;5112606;28;20043;-60
2021/12/30 11:36:12;;;;;;;10.95;4.95;;;;;;;;;;5112730;28;20040;-60
2021/12/30 11:38:39;;;;;;;16.92;6.40;;;;;;;;;;5112345;27;20448;-60
2021/12/30 11:41:05;;;;;;;10.80;5.43;;;;;;;;;;5112512;28;20035;-60
2021/12/30 11:43:43;;;;;;;11.20;5.47;;;;;;;;;;5112672;28;20100;-60
2021/12/30 11:46:36;;;;;;;13.77;6.32;;;;;;;;;;5112163;28;20043;-60
2021/12/30 11:49:03;;;;;;;14.43;6.13;;;;;;;;;;5112558;28;20051;-60
2021/12/30 11:51:40;;;;;;;9.68;5.65;;;;;;;;;;5112844;28;20040;-60
2021/12/30 11:54:21;;;;;;;16.55;6.50;;;;;;;;;;5112159;28;20047;-60
2021/12/30 11:56:48;;;;;;;13.10;6.10;;;;;;;;;;5111909;28;20040;-60
2021/12/30 11:59:30;;;;;;;16.05;6.43;;;;;;;;;;5111844;28;20100;-60
2021/12/30 12:01:56;;;;;;;15.25;6.55;;;;;;;;;;5112313;28;20052;-60
2021/12/30 12:04:27;;;;;;;11.95;6.60;;;;;;;;;;5112362;28;20482;-60
2021/12/30 12:07:01;;;;;;;14.23;6.70;;;;;;;;;;5111165;28;20134;-60
2021/12/30 12:09:37;;;;;;;12.02;6.53;;;;;;;;;;5112147;28;20134;-60
2021/12/30 12:12:05;;;;;;;13.05;6.72;;;;;;;;;;5111893;28;20561;-60
2021/12/30 12:14:34;;;;;;;12.90;6.75;;;;;;;;;;5111492;28;20043;-60
2021/12/30 12:17:01;;;;;;;11.85;6.30;;;;;;;;;;5112164;28;20047;-60
2021/12/30 12:19:35;;;;;;;11.50;6.60;;;;;;;;;;5111862;28;20043;-60
2021/12/30 12:22:03;;;;;;;14.77;6.82;;;;;;;;;;5111003;28;20048;-60
2021/12/30 12:24:34;;;;;;;14.93;7.30;;;;;;;;;;5112100;28;20190;-60
2021/12/30 12:27:01;;;;;;;12.65;6.78;;;;;;;;;;5111099;28;20088;-60
2021/12/30 12:29:28;;;;;;;13.50;6.30;;;;;;;;;;5111773;28;20488;-60
2021/12/30 12:31:57;;;;;;;11.25;6.57;;;;;;;;;;5111619;28;20044;-60
2021/12/30 12:34:38;;;;;;;12.90;7.47;;;;;;;;;;5111060;27;20105;-60
2021/12/30 12:37:05;;;;;;;12.23;6.32;;;;;;;;;;5111748;28;20069;-60
2021/12/30 12:39:35;;;;;;;12.43;6.50;;;;;;;;;;5111822;28;20048;-60
2021/12/30 12:42:01;;;;;;;11.50;7.20;;;;;;;;;;5110894;28;20172;-60
2021/12/30 12:44:29;;;;;;;13.48;6.93;;;;;;;;;;5111527;28;20043;-60
2021/12/30 12:46:56;;;;;;;10.65;6.35;;;;;;;;;;5111446;28;20040;-60
2021/12/30 12:49:42;;;;;;;12.73;7.13;;;;;;;;;;5111117;28;20101;-60
2021/12/30 12:52:09;;;;;;;12.07;6.82;;;;;;;;;;5111793;28;20581;-60
2021/12/30 12:54:35;;;;;;;16.45;6.07;;;;;;;;;;5111563;28;20047;-60
2021/12/30 12:57:05;;;;;;;11.65;6.03;;;;;;;;;;5110464;28;20257;-60
2021/12/30 12:59:34;;;;;;;9.52;6.43;;;;;;;;;;5103847;28;20048;-60
2021/12/30 13:02:02;;;;;;;11.02;6.78;;;;;;;;;;5091212;28;20040;-59
2021/12/30 13:04:28;;;;;;;10.60;6.22;;;;;;;;;;5090753;28;20544;-59
2021/12/30 13:06:54;;;;;;;8.80;6.28;;;;;;;;;;5090680;28;20040;-59
2021/12/30 13:09:21;;;;;;;13.52;5.82;;;;;;;;;;5090685;28;20044;-59
2021/12/30 13:11:49;;;;;;;9.75;5.82;;;;;;;;;;5090678;28;20490;-59
2021/12/30 13:14:17;;;;;;;9.73;6.28;;;;;;;;;;5091206;28;20108;-60
2021/12/30 13:16:44;;;;;;;10.95;6.50;;;;;;;;;;5090152;28;20240;-59
2021/12/30 13:19:13;;;;;;;11.52;6.68;;;;;;;;;;5091068;28;20107;-60
2021/12/30 13:21:48;;;;;;;10.05;6.20;;;;;;;;;;5091264;28;20135;-59
2021/12/30 13:24:27;;;;;;;10.73;6.70;;;;;;;;;;5090199;28;20097;-60
2021/12/30 13:26:53;;;;;;;8.85;6.55;;;;;;;;;;5090891;28;20056;-60
2021/12/30 13:29:23;;;;;;;13.57;6.28;;;;;;;;;;5090999;28;20483;-59
2021/12/30 13:31:56;;;;;;;9.98;6.07;;;;;;;;;;5104552;28;20104;-59
2021/12/30 13:34:24;;;;;;;11.38;7.13;;;;;;;;;;5115564;27;20113;-59
2021/12/30 13:36:50;;;;;;;10.43;6.70;;;;;;;;;;5114814;28;20044;-60
2021/12/30 13:39:17;;;;;;;12.50;7.15;;;;;;;;;;5114722;28;20053;-59
2021/12/30 13:41:50;;;;;;;12.68;7.07;;;;;;;;;;5114632;28;20545;-60
2021/12/30 13:44:17;;;;;;;10.50;6.25;;;;;;;;;;5114343;28;20043;-59
2021/12/30 13:46:44;;;;;;;11.25;7.25;;;;;;;;;;5114625;28;20086;-60
2021/12/30 13:49:10;;;;;;;11.07;7.63;;;;;;;;;;5115191;28;20044;-60
2021/12/30 13:51:37;;;;;;;12.73;7.90;;;;;;;;;;5114324;28;20047;-59
2021/12/30 13:54:07;;;;;;;10.38;7.03;;;;;;;;;;5114832;28;20051;-59
2021/12/30 13:56:33;;;;;;;10.88;7.50;;;;;;;;;;5114869;28;20391;-59
2021/12/30 13:59:02;;;;;;;10.68;6.93;;;;;;;;;;5113693;28;20036;-59
2021/12/30 14:01:30;;;;;;;13.75;7.68;;;;;;;;;;5114738;28;20466;-59
2021/12/30 14:04:02;;;;;;;11.70;7.00;;;;;;;;;;5114369;28;20526;-60
2021/12/30 14:06:29;;;;;;;14.52;7.70;;;;;;;;;;5113826;28;20051;-59
2021/12/30 14:08:59;;;;;;;13.07;6.97;;;;;;;;;;5114316;28;20722;-59
2021/12/30 14:11:28;;;;;;;13.55;6.78;;;;;;;;;;5114544;28;20084;-59
2021/12/30 14:13:54;;;;;;;11.68;6.63;;;;;;;;;;5113548;28;20483;-59
2021/12/30 14:16:22;;;;;;;11.90;7.15;;;;;;;;;;5114397;28;20136;-59
2021/12/30 14:18:52;;;;;;;10.15;6.18;;;;;;;;;;5113832;28;20044;-59
2021/12/30 14:21:18;;;;;;;9.57;5.85;;;;;;;;;;5113138;28;20482;-59
2021/12/30 14:23:47;;;;;;;11.45;5.93;;;;;;;;;;5114138;28;20051;-59
2021/12/30 14:26:20;;;;;;;8.05;4.82;;;;;;;;;;5114281;28;20489;-59
2021/12/30 14:28:48;;;;;;;9.95;6.15;;;;;;;;;;5112823;28;20047;-59
2021/12/30 14:31:18;;;;;;;7.03;4.82;;;;;;;;;;5113509;28;20081;-59
2021/12/30 14:33:44;;;;;;;8.85;5.03;;;;;;;;;;5113175;28;20043;-59